createdAt,value
2022-12-05T00:01:29.185Z,34.75
2022-12-05T00:03:59.401Z,36.38
2022-12-05T00:06:29.127Z,36.45
2022-12-05T00:08:58.582Z,36.20
2022-12-05T00:11:27.813Z,35.58
2022-12-05T00:14:00.569Z,36.63
2022-12-05T00:16:32.104Z,33.08
2022-12-05T00:19:00.617Z,30.83
2022-12-05T00:21:31.119Z,32.15
2022-12-05T00:24:00.245Z,38.90
2022-12-05T00:26:28.632Z,60.83
2022-12-05T00:28:58.467Z,68.75
2022-12-05T00:31:27.714Z,67.05
2022-12-05T00:33:56.187Z,64.35
2022-12-05T00:36:25.610Z,65.03
2022-12-05T00:38:54.039Z,50.38
2022-12-05T00:41:23.415Z,39.92
2022-12-05T00:43:51.671Z,36.85
2022-12-05T00:46:23.317Z,37.47
2022-12-05T00:48:51.587Z,36.20
2022-12-05T00:51:21.177Z,34.33
2022-12-05T00:53:49.616Z,32.97
2022-12-05T00:56:21.820Z,37.88
2022-12-05T00:58:50.356Z,32.35
2022-12-05T01:01:20.300Z,33.17
2022-12-05T01:03:52.605Z,34.85
2022-12-05T01:06:24.413Z,34.78
2022-12-05T01:08:53.687Z,36.83
2022-12-05T01:11:21.650Z,32.22
2022-12-05T01:13:49.581Z,35.20
2022-12-05T01:16:19.045Z,37.63
2022-12-05T01:18:49.681Z,37.53
2022-12-05T01:21:17.368Z,35.00
2022-12-05T01:23:45.150Z,36.00
2022-12-05T01:26:16.126Z,38.05
2022-12-05T01:28:44.120Z,36.03
2022-12-05T01:31:19.618Z,37.47
2022-12-05T01:33:50.696Z,32.97
2022-12-05T01:36:19.161Z,32.33
2022-12-05T01:38:47.137Z,31.73
2022-12-05T01:41:18.566Z,34.45
2022-12-05T01:43:57.942Z,32.17
2022-12-05T01:46:26.662Z,31.90
2022-12-05T01:49:01.046Z,30.50
2022-12-05T01:51:28.907Z,31.80
2022-12-05T01:53:56.611Z,33.58
2022-12-05T01:56:24.170Z,31.98
2022-12-05T01:58:53.562Z,29.38
2022-12-05T02:01:21.789Z,30.00
2022-12-05T02:03:52.692Z,32.42
2022-12-05T02:06:46.445Z,31.23
2022-12-05T02:09:14.747Z,32.53
2022-12-05T02:11:53.383Z,32.05
2022-12-05T02:14:30.582Z,32.92
2022-12-05T02:17:05.779Z,33.28
2022-12-05T02:19:53.835Z,29.83
2022-12-05T02:22:59.563Z,28.98
2022-12-05T02:26:16.561Z,29.67
2022-12-05T02:29:03.397Z,30.30
2022-12-05T02:31:38.966Z,30.80
2022-12-05T02:34:17.085Z,30.40
2022-12-05T02:36:50.920Z,30.55
2022-12-05T02:39:25.566Z,28.35
2022-12-05T02:41:59.599Z,30.73
2022-12-05T02:44:35.648Z,30.08
2022-12-05T02:47:08.634Z,33.00
2022-12-05T02:49:39.644Z,29.17
2022-12-05T02:52:11.210Z,30.70
2022-12-05T02:54:42.538Z,30.88
2022-12-05T02:57:14.306Z,30.65
2022-12-05T02:59:42.583Z,28.27
2022-12-05T03:02:24.297Z,30.33
2022-12-05T03:04:52.304Z,30.00
2022-12-05T03:07:27.582Z,28.30
2022-12-05T03:10:25.957Z,29.30
2022-12-05T03:12:58.912Z,28.35
2022-12-05T03:15:57.412Z,29.63
2022-12-05T03:18:31.458Z,27.77
2022-12-05T03:21:04.476Z,29.77
2022-12-05T03:23:35.564Z,29.02
2022-12-05T03:26:12.071Z,27.40
2022-12-05T03:28:51.013Z,29.67
2022-12-05T03:31:26.772Z,27.02
2022-12-05T03:34:01.585Z,30.80
2022-12-05T03:36:40.643Z,27.25
2022-12-05T03:39:19.638Z,28.52
2022-12-05T03:41:58.548Z,31.25
2022-12-05T03:44:34.130Z,28.48
2022-12-05T03:47:07.430Z,30.10
2022-12-05T03:49:41.268Z,29.77
2022-12-05T03:52:13.581Z,26.85
2022-12-05T03:54:46.305Z,27.85
2022-12-05T03:57:19.663Z,26.60
2022-12-05T03:59:53.446Z,26.02
2022-12-05T04:02:27.159Z,28.23
2022-12-05T04:04:59.492Z,26.05
2022-12-05T04:07:30.803Z,30.23
2022-12-05T04:10:03.593Z,28.30
2022-12-05T04:12:34.474Z,26.90
2022-12-05T04:17:40.899Z,26.70
2022-12-05T04:20:32.385Z,24.98
2022-12-05T04:23:01.457Z,27.45
2022-12-05T04:25:35.000Z,27.65
2022-12-05T04:28:22.087Z,25.75
2022-12-05T04:30:54.713Z,25.00
2022-12-05T04:33:30.678Z,25.80
2022-12-05T04:36:08.550Z,25.25
2022-12-05T04:38:43.170Z,24.25
2022-12-05T04:41:17.206Z,26.60
2022-12-05T04:43:48.356Z,24.63
2022-12-05T04:46:19.613Z,23.75
2022-12-05T04:48:54.011Z,23.35
2022-12-05T04:51:26.861Z,25.08
2022-12-05T04:54:00.027Z,24.50
2022-12-05T04:58:58.658Z,24.05
2022-12-05T05:01:31.433Z,23.23
2022-12-05T05:04:06.680Z,23.77
2022-12-05T05:06:39.497Z,23.42
2022-12-05T05:11:36.665Z,22.88
2022-12-05T05:14:05.712Z,23.00
2022-12-05T05:16:36.073Z,24.27
2022-12-05T05:19:04.662Z,23.10
2022-12-05T05:21:35.510Z,22.38
2022-12-05T05:24:06.578Z,22.58
2022-12-05T05:26:41.591Z,20.92
2022-12-05T05:29:10.671Z,23.33
2022-12-05T05:31:39.676Z,21.20
2022-12-05T05:34:09.620Z,23.63
2022-12-05T05:36:37.880Z,24.13
2022-12-05T05:39:07.631Z,22.40
2022-12-05T05:41:37.671Z,25.73
2022-12-05T05:44:06.607Z,23.33
2022-12-05T05:46:36.323Z,22.50
2022-12-05T05:49:06.664Z,25.38
2022-12-05T05:51:35.107Z,24.48
2022-12-05T05:54:02.696Z,24.17
2022-12-05T05:56:31.720Z,23.60
2022-12-05T05:59:01.700Z,23.00
2022-12-05T06:01:32.589Z,23.33
2022-12-05T06:04:00.460Z,23.88
2022-12-05T06:08:59.677Z,23.25
2022-12-05T06:11:29.578Z,22.88
2022-12-05T06:14:01.987Z,23.92
2022-12-05T06:16:31.289Z,22.85
2022-12-05T06:18:59.354Z,23.25
2022-12-05T06:21:27.768Z,23.15
2022-12-05T06:23:55.954Z,22.77
2022-12-05T06:26:24.338Z,25.55
2022-12-05T06:28:51.949Z,23.17
2022-12-05T06:31:28.509Z,24.58
2022-12-05T06:33:56.167Z,22.30
2022-12-05T06:36:25.057Z,22.98
2022-12-05T06:38:52.581Z,21.88
2022-12-05T06:41:21.854Z,23.83
2022-12-05T06:43:49.646Z,23.35
2022-12-05T06:46:18.110Z,21.98
2022-12-05T06:49:12.651Z,24.23
2022-12-05T06:51:40.244Z,22.48
2022-12-05T06:54:07.891Z,22.92
2022-12-05T06:57:01.560Z,23.50
2022-12-05T06:59:31.631Z,20.63
2022-12-05T07:01:58.699Z,22.45
2022-12-05T07:04:27.760Z,21.73
2022-12-05T07:06:56.603Z,18.92
2022-12-05T07:09:46.561Z,21.50
2022-12-05T07:12:17.313Z,20.60
2022-12-05T07:14:48.532Z,22.45
2022-12-05T07:17:44.556Z,20.10
2022-12-05T07:20:17.648Z,21.23
2022-12-05T07:22:46.460Z,22.38
2022-12-05T07:28:07.571Z,21.58
2022-12-05T07:30:36.566Z,21.20
2022-12-05T07:33:06.001Z,21.00
2022-12-05T07:35:34.890Z,20.50
2022-12-05T07:38:03.184Z,21.10
2022-12-05T07:40:31.580Z,22.35
2022-12-05T07:43:00.054Z,21.75
2022-12-05T07:45:28.792Z,21.40
2022-12-05T07:47:58.633Z,20.85
2022-12-05T07:50:27.638Z,22.10
2022-12-05T07:52:56.780Z,22.50
2022-12-05T07:55:24.567Z,20.70
2022-12-05T07:57:52.219Z,21.63
2022-12-05T08:00:45.521Z,19.05
2022-12-05T08:03:15.633Z,21.20
2022-12-05T08:05:44.228Z,21.67
2022-12-05T08:08:13.395Z,22.42
2022-12-05T08:10:41.579Z,21.13
2022-12-05T08:13:09.210Z,21.33
2022-12-05T08:15:37.386Z,19.48
2022-12-05T08:18:05.768Z,22.55
2022-12-05T08:21:02.200Z,21.30
2022-12-05T08:23:32.399Z,21.50
2022-12-05T08:26:03.917Z,19.45
2022-12-05T08:28:32.661Z,20.75
2022-12-05T08:31:05.132Z,23.75
2022-12-05T08:33:33.177Z,23.38
2022-12-05T08:36:03.520Z,21.10
2022-12-05T08:38:33.177Z,20.60
2022-12-05T08:41:01.762Z,22.33
2022-12-05T08:43:31.554Z,21.13
2022-12-05T08:46:01.713Z,22.65
2022-12-05T08:48:31.429Z,22.92
2022-12-05T08:50:59.977Z,19.63
2022-12-05T08:53:28.556Z,22.30
2022-12-05T08:56:00.842Z,20.42
2022-12-05T08:58:30.059Z,22.80
2022-12-05T09:01:09.637Z,21.67
2022-12-05T09:03:37.616Z,22.10
2022-12-05T09:06:07.248Z,21.42
2022-12-05T09:08:34.807Z,22.10
2022-12-05T09:11:07.678Z,20.50
2022-12-05T09:13:36.797Z,20.90
2022-12-05T09:16:09.155Z,21.00
2022-12-05T09:18:37.784Z,20.40
2022-12-05T09:21:09.325Z,19.10
2022-12-05T09:23:38.608Z,17.15
2022-12-05T09:26:12.123Z,18.92
2022-12-05T09:28:40.568Z,18.35
2022-12-05T09:31:10.298Z,18.13
2022-12-05T09:33:38.875Z,17.10
2022-12-05T09:36:08.732Z,18.48
2022-12-05T09:38:37.139Z,17.38
2022-12-05T09:41:17.070Z,18.15
2022-12-05T09:43:51.826Z,17.70
2022-12-05T09:46:35.507Z,16.77
2022-12-05T09:49:06.617Z,17.98
2022-12-05T09:51:49.669Z,17.42
2022-12-05T09:54:23.566Z,15.50
2022-12-05T09:56:54.015Z,15.05
2022-12-05T09:59:22.696Z,16.77
2022-12-05T10:01:58.774Z,16.98
2022-12-05T10:05:00.419Z,17.30
2022-12-05T10:07:35.922Z,16.83
2022-12-05T10:10:21.626Z,15.85
2022-12-05T10:13:09.627Z,15.38
2022-12-05T10:15:46.646Z,16.33
2022-12-05T10:18:27.870Z,17.38
2022-12-05T10:21:02.434Z,19.25
2022-12-05T10:26:29.986Z,17.10
2022-12-05T10:29:08.849Z,15.82
2022-12-05T10:31:40.686Z,16.80
2022-12-05T10:34:39.358Z,15.55
2022-12-05T10:37:12.462Z,15.55
2022-12-05T10:39:40.115Z,18.15
2022-12-05T10:42:13.348Z,17.88
2022-12-05T10:44:45.649Z,15.80
2022-12-05T10:47:14.164Z,15.60
2022-12-05T10:49:42.059Z,16.85
2022-12-05T10:52:13.296Z,16.52
2022-12-05T10:54:47.573Z,17.42
2022-12-05T10:57:24.107Z,18.95
2022-12-05T10:59:53.395Z,17.48
2022-12-05T11:02:25.856Z,18.02
2022-12-05T11:07:30.382Z,16.30
2022-12-05T11:10:00.587Z,14.80
2022-12-05T11:12:30.030Z,15.13
2022-12-05T11:15:02.872Z,14.57
2022-12-05T11:17:34.391Z,15.45
2022-12-05T11:20:02.563Z,15.10
2022-12-05T11:22:33.424Z,15.07
2022-12-05T11:25:01.220Z,14.63
2022-12-05T11:27:31.772Z,16.00
2022-12-05T11:30:03.653Z,14.95
2022-12-05T11:35:09.934Z,15.80
2022-12-05T11:40:41.358Z,12.48
2022-12-05T11:43:31.063Z,13.52
2022-12-05T11:46:15.723Z,17.00
2022-12-05T11:49:01.571Z,14.43
2022-12-05T11:51:39.294Z,15.27
2022-12-05T11:55:04.385Z,15.35
2022-12-05T11:57:42.629Z,12.40
2022-12-05T12:00:26.742Z,12.23
2022-12-05T12:03:20.725Z,13.43
2022-12-05T12:06:01.567Z,11.80
2022-12-05T12:08:31.546Z,13.73
2022-12-05T12:11:10.849Z,14.55
2022-12-05T12:14:01.659Z,14.52
2022-12-05T12:16:40.725Z,18.58
2022-12-05T12:19:27.752Z,17.73
2022-12-05T12:22:08.315Z,15.32
2022-12-05T12:25:01.487Z,13.15
2022-12-05T12:27:42.012Z,18.35
2022-12-05T12:30:16.683Z,17.67
2022-12-05T12:33:02.656Z,15.85
2022-12-05T12:35:32.980Z,15.52
2022-12-05T12:38:26.488Z,12.82
2022-12-05T12:40:58.014Z,14.27
2022-12-05T12:43:58.856Z,13.77
2022-12-05T12:46:37.670Z,15.82
2022-12-05T12:49:43.664Z,16.38
2022-12-05T12:52:18.750Z,17.02
2022-12-05T12:55:05.078Z,17.00
2022-12-05T12:57:47.643Z,17.23
2022-12-05T13:00:24.739Z,17.40
2022-12-05T13:02:58.014Z,17.20
2022-12-05T13:05:34.644Z,17.05
2022-12-05T13:08:12.442Z,18.85
2022-12-05T13:10:44.538Z,16.75
2022-12-05T13:13:17.158Z,13.77
2022-12-05T13:15:48.792Z,16.92
2022-12-05T13:18:19.036Z,15.82
2022-12-05T13:20:49.267Z,14.30
2022-12-05T13:23:22.162Z,15.90
2022-12-05T13:25:50.303Z,16.08
2022-12-05T13:28:26.838Z,15.75
2022-12-05T13:31:02.737Z,17.02
2022-12-05T13:33:34.775Z,15.85
2022-12-05T13:36:30.155Z,17.65
2022-12-05T13:39:21.103Z,16.83
2022-12-05T13:42:09.560Z,15.02
2022-12-05T13:45:10.276Z,15.85
2022-12-05T13:47:52.132Z,17.63
2022-12-05T13:50:29.587Z,18.80
2022-12-05T13:53:02.452Z,18.67
2022-12-05T13:55:36.427Z,16.77
2022-12-05T13:58:25.194Z,16.50
2022-12-05T14:01:36.185Z,15.98
2022-12-05T14:04:48.016Z,16.20
2022-12-05T14:07:42.997Z,15.07
2022-12-05T14:10:14.575Z,17.70
2022-12-05T14:12:52.458Z,14.93
2022-12-05T14:15:29.218Z,17.63
2022-12-05T14:18:03.164Z,15.32
2022-12-05T14:20:44.733Z,15.90
2022-12-05T14:26:17.927Z,16.10
2022-12-05T14:29:02.431Z,16.00
2022-12-05T14:31:42.852Z,16.63
2022-12-05T14:34:24.732Z,15.30
2022-12-05T14:36:58.792Z,15.25
2022-12-05T14:39:34.965Z,15.82
2022-12-05T14:42:08.189Z,15.98
2022-12-05T14:44:36.123Z,16.05
2022-12-05T14:47:07.733Z,13.98
2022-12-05T14:49:53.668Z,12.77
2022-12-05T14:52:23.582Z,16.23
2022-12-05T14:54:53.638Z,16.08
2022-12-05T14:57:22.909Z,15.55
2022-12-05T14:59:53.642Z,15.55
2022-12-05T15:02:27.539Z,16.58
2022-12-05T15:05:04.656Z,15.52
2022-12-05T15:07:36.991Z,22.85
2022-12-05T15:10:07.503Z,18.33
2022-12-05T15:12:42.734Z,13.30
2022-12-05T15:15:17.251Z,13.93
2022-12-05T15:17:48.567Z,12.02
2022-12-05T15:20:24.202Z,11.85
2022-12-05T15:22:55.572Z,12.73
2022-12-05T15:25:29.428Z,11.13
2022-12-05T15:28:02.612Z,13.02
2022-12-05T15:30:32.152Z,12.25
2022-12-05T15:33:00.790Z,13.40
2022-12-05T15:35:33.576Z,12.98
2022-12-05T15:38:09.140Z,13.38
2022-12-05T15:40:38.316Z,14.05
2022-12-05T15:43:28.793Z,13.13
2022-12-05T15:46:10.701Z,12.07
2022-12-05T15:48:38.325Z,12.77
2022-12-05T15:51:07.531Z,13.98
2022-12-05T15:53:38.147Z,13.30
2022-12-05T15:56:14.573Z,12.15
2022-12-05T15:58:48.360Z,11.00
2022-12-05T16:01:19.770Z,11.13
2022-12-05T16:03:51.672Z,11.93
2022-12-05T16:08:54.602Z,13.05
2022-12-05T16:11:22.551Z,11.75
2022-12-05T16:13:53.605Z,12.10
2022-12-05T16:16:25.759Z,11.67
2022-12-05T16:18:57.576Z,11.48
2022-12-05T16:21:38.981Z,12.02
2022-12-05T16:24:35.572Z,11.05
2022-12-05T16:27:07.040Z,11.45
2022-12-05T16:29:36.902Z,11.52
2022-12-05T16:32:14.840Z,11.98
2022-12-05T16:34:45.384Z,13.00
2022-12-05T16:37:25.880Z,10.77
2022-12-05T16:39:55.851Z,11.15
2022-12-05T16:42:25.639Z,12.75
2022-12-05T16:45:01.846Z,11.90
2022-12-05T16:47:59.604Z,10.48
2022-12-05T16:50:34.711Z,11.95
2022-12-05T16:53:15.303Z,10.75
2022-12-05T16:55:45.100Z,13.10
2022-12-05T16:58:18.590Z,9.73
2022-12-05T17:00:46.392Z,10.20
2022-12-05T17:03:34.081Z,9.98
2022-12-05T17:06:02.798Z,10.63
2022-12-05T17:08:31.859Z,11.88
2022-12-05T17:11:01.767Z,12.13
2022-12-05T17:13:31.493Z,15.40
2022-12-05T17:15:59.463Z,15.15
2022-12-05T17:18:31.849Z,14.52
2022-12-05T17:21:02.869Z,14.98
2022-12-05T17:23:31.861Z,15.77
2022-12-05T17:26:00.568Z,15.80
2022-12-05T17:28:28.206Z,14.35
2022-12-05T17:30:56.090Z,16.67
2022-12-05T17:33:24.154Z,15.90
2022-12-05T17:35:52.582Z,15.30
2022-12-05T17:38:21.913Z,16.45
2022-12-05T17:40:52.585Z,15.13
2022-12-05T17:43:24.975Z,14.88
2022-12-05T17:45:54.574Z,13.00
2022-12-05T17:48:22.502Z,12.93
2022-12-05T17:50:52.214Z,11.52
2022-12-05T17:53:22.604Z,10.85
2022-12-05T17:55:52.254Z,10.18
2022-12-05T17:58:19.853Z,11.02
2022-12-05T18:00:48.708Z,9.60
2022-12-05T18:03:18.999Z,9.70
2022-12-05T18:05:47.342Z,10.02
2022-12-05T18:08:16.337Z,9.02
2022-12-05T18:10:46.106Z,9.93
2022-12-05T18:13:16.050Z,11.52
2022-12-05T18:15:43.895Z,9.02
2022-12-05T18:18:15.568Z,9.20
2022-12-05T18:20:44.492Z,9.02
2022-12-05T18:23:13.228Z,10.07
2022-12-05T18:25:41.518Z,9.82
2022-12-05T18:28:09.377Z,9.43
2022-12-05T18:30:38.325Z,9.55
2022-12-05T18:33:06.009Z,9.68
2022-12-05T18:35:43.080Z,8.68
2022-12-05T18:38:12.405Z,9.73
2022-12-05T18:40:40.158Z,8.40
2022-12-05T18:43:07.903Z,9.90
2022-12-05T18:45:36.213Z,8.45
2022-12-05T18:50:53.627Z,8.38
2022-12-05T18:53:21.748Z,9.63
2022-12-05T18:56:13.578Z,8.50
2022-12-05T18:58:38.648Z,9.40
2022-12-05T19:01:09.269Z,8.85
2022-12-05T19:03:38.997Z,9.32
2022-12-05T19:06:13.402Z,9.57
2022-12-05T19:08:41.605Z,9.07
2022-12-05T19:11:09.316Z,9.55
2022-12-05T19:13:37.285Z,10.68
2022-12-05T19:16:05.575Z,9.57
2022-12-05T19:18:33.320Z,13.18
2022-12-05T19:21:02.511Z,21.80
2022-12-05T19:23:33.871Z,19.02
2022-12-05T19:26:02.157Z,17.15
2022-12-05T19:28:30.009Z,14.43
2022-12-05T19:31:01.833Z,13.75
2022-12-05T19:33:34.762Z,14.30
2022-12-05T19:36:06.109Z,12.13
2022-12-05T19:38:37.699Z,13.88
2022-12-05T19:41:07.182Z,14.57
2022-12-05T19:43:36.617Z,11.45
2022-12-05T19:46:05.372Z,11.13
2022-12-05T19:48:33.413Z,10.88
2022-12-05T19:51:02.042Z,10.20
2022-12-05T19:53:33.436Z,10.50
2022-12-05T19:56:02.288Z,14.45
2022-12-05T19:58:32.657Z,27.33
2022-12-05T20:01:07.868Z,21.85
2022-12-05T20:03:35.807Z,14.32
2022-12-05T20:06:04.799Z,9.13
2022-12-05T20:08:34.138Z,9.32
2022-12-05T20:11:05.584Z,8.80
2022-12-05T20:13:49.944Z,8.23
2022-12-05T20:16:22.784Z,7.50
2022-12-05T20:18:51.124Z,8.77
2022-12-05T20:21:21.896Z,7.65
2022-12-05T20:23:51.686Z,8.05
2022-12-05T20:26:21.564Z,8.48
2022-12-05T20:28:49.560Z,7.32
2022-12-05T20:31:19.657Z,8.07
2022-12-05T20:33:48.746Z,8.10
2022-12-05T20:36:18.421Z,7.55
2022-12-05T20:38:47.384Z,9.90
2022-12-05T20:41:18.770Z,10.48
2022-12-05T20:43:48.639Z,9.90
2022-12-05T20:46:20.509Z,13.60
2022-12-05T20:51:20.449Z,11.70
2022-12-05T20:53:48.269Z,11.82
2022-12-05T20:56:19.000Z,14.55
2022-12-05T20:58:49.040Z,14.95
2022-12-05T21:01:17.925Z,16.08
2022-12-05T21:03:46.908Z,11.95
2022-12-05T21:06:16.331Z,13.18
2022-12-05T21:08:43.933Z,13.20
2022-12-05T21:11:13.725Z,14.00
2022-12-05T21:13:44.645Z,13.15
2022-12-05T21:16:16.934Z,11.30
2022-12-05T21:18:45.289Z,9.68
2022-12-05T21:21:15.471Z,10.15
2022-12-05T21:23:43.568Z,9.93
2022-12-05T21:26:13.830Z,12.48
2022-12-05T21:28:42.442Z,12.10
2022-12-05T21:31:14.728Z,12.55
2022-12-05T21:33:46.863Z,9.15
2022-12-05T21:36:14.658Z,8.57
2022-12-05T21:38:43.473Z,9.05
2022-12-05T21:41:11.896Z,10.15
2022-12-05T21:43:39.500Z,9.15
2022-12-05T21:46:07.654Z,7.75
2022-12-05T21:48:38.629Z,8.23
2022-12-05T21:51:07.591Z,8.32
2022-12-05T21:53:36.662Z,7.65
2022-12-05T21:56:08.412Z,8.13
2022-12-05T21:58:41.841Z,7.60
2022-12-05T22:01:12.135Z,8.25
2022-12-05T22:03:41.085Z,8.70
2022-12-05T22:06:10.828Z,8.50
2022-12-05T22:08:39.718Z,9.57
2022-12-05T22:11:08.449Z,7.38
2022-12-05T22:13:36.452Z,7.18
2022-12-05T22:16:05.695Z,6.88
2022-12-05T22:18:35.885Z,7.28
2022-12-05T22:21:07.106Z,7.72
2022-12-05T22:23:38.072Z,9.57
2022-12-05T22:26:08.580Z,7.65
2022-12-05T22:28:36.805Z,9.40
2022-12-05T22:31:09.845Z,8.10
2022-12-05T22:33:38.668Z,8.30
2022-12-05T22:36:10.162Z,7.93
2022-12-05T22:38:39.679Z,6.50
2022-12-05T22:41:13.991Z,8.15
2022-12-05T22:43:42.759Z,7.78
2022-12-05T22:46:13.526Z,8.13
2022-12-05T22:48:41.287Z,7.88
2022-12-05T22:51:11.689Z,7.32
2022-12-05T22:53:41.734Z,7.88
2022-12-05T22:56:12.031Z,7.15
2022-12-05T22:58:40.480Z,7.30
2022-12-05T23:01:12.698Z,8.50
2022-12-05T23:03:41.263Z,8.30
2022-12-05T23:06:12.236Z,7.32
2022-12-05T23:08:40.617Z,7.50
2022-12-05T23:11:09.590Z,7.47
2022-12-05T23:13:39.166Z,7.72
2022-12-05T23:16:10.699Z,7.28
2022-12-05T23:18:47.497Z,7.95
2022-12-05T23:21:19.761Z,8.93
2022-12-05T23:23:48.703Z,10.02
2022-12-05T23:26:19.874Z,9.75
2022-12-05T23:28:47.690Z,9.57
2022-12-05T23:31:17.781Z,9.75
2022-12-05T23:33:50.853Z,11.82
2022-12-05T23:36:21.082Z,10.18
2022-12-05T23:38:50.571Z,9.35
2022-12-05T23:41:22.069Z,9.02
2022-12-05T23:43:52.590Z,8.52
2022-12-05T23:46:22.820Z,9.15
2022-12-05T23:48:51.596Z,8.95
2022-12-05T23:51:23.845Z,9.70
2022-12-05T23:53:55.718Z,9.10
2022-12-05T23:56:25.594Z,9.25
2022-12-05T23:58:55.712Z,9.50
